Time;durP1;ratioP1;P1;durP2;ratioP2;P2;SDS_P1;SDS_P2;PMS_P1;PMS_P2;Temp;Humidity;BMP_temperature;BMP_pressure;BME280_temperature;BME280_humidity;BME280_pressure;Samples;Min_cycle;Max_cycle;Signal;HPM_P1;HPM_P2
2021/01/22 00:02:13;;;;;;;25.65;15.48;;;;;;;6.99;100.00;101584.47;5080736;28;20101;-73
2021/01/22 00:04:59;;;;;;;26.17;16.73;;;;;;;6.93;100.00;101584.41;5080291;28;20061;-73
2021/01/22 00:07:45;;;;;;;28.33;17.67;;;;;;;6.85;100.00;101586.03;5094501;28;20081;-73
2021/01/22 00:10:30;;;;;;;29.63;18.08;;;;;;;7.03;100.00;101581.91;5094936;28;20031;-73
2021/01/22 00:13:16;;;;;;;32.33;18.67;;;;;;;7.04;100.00;101578.47;5080564;28;20452;-72
2021/01/22 00:16:03;;;;;;;36.40;20.38;;;;;;;7.07;100.00;101577.63;5095387;28;20036;-74
2021/01/22 00:18:48;;;;;;;34.67;19.20;;;;;;;6.96;100.00;101579.22;5095452;28;20383;-73
2021/01/22 00:21:34;;;;;;;30.92;18.70;;;;;;;6.64;100.00;101575.38;5094181;28;20417;-73
2021/01/22 00:24:20;;;;;;;29.95;18.85;;;;;;;6.65;100.00;101579.72;5093971;28;20035;-73
2021/01/22 00:27:06;;;;;;;31.15;19.30;;;;;;;6.55;100.00;101567.47;5094558;28;20032;-73
2021/01/22 00:29:51;;;;;;;30.17;19.52;;;;;;;6.39;100.00;101562.94;5079060;28;20036;-73
2021/01/22 00:32:37;;;;;;;29.50;18.90;;;;;;;6.29;100.00;101574.06;5093897;28;20042;-74
2021/01/22 00:35:23;;;;;;;31.38;19.58;;;;;;;6.32;100.00;101558.47;5066422;28;20027;-73
2021/01/22 00:38:09;;;;;;;30.95;18.92;;;;;;;6.28;100.00;101565.38;5080945;28;20024;-73
2021/01/22 00:40:54;;;;;;;31.98;21.38;;;;;;;6.10;100.00;101562.53;5080562;28;20028;-74
2021/01/22 00:43:40;;;;;;;32.20;21.50;;;;;;;6.20;100.00;101560.94;5093972;28;20032;-73
2021/01/22 00:46:26;;;;;;;32.78;20.67;;;;;;;5.84;100.00;101565.59;5094799;28;20444;-73
2021/01/22 00:49:11;;;;;;;30.52;19.63;;;;;;;5.87;100.00;101550.91;5079564;28;20479;-73
2021/01/22 00:51:57;;;;;;;30.77;18.80;;;;;;;5.76;100.00;101557.66;5093529;28;20038;-74
2021/01/22 00:54:43;;;;;;;30.85;19.92;;;;;;;5.79;100.00;101549.03;5093703;28;20042;-73
2021/01/22 00:57:28;;;;;;;31.88;20.38;;;;;;;5.46;100.00;101551.97;5094517;28;20028;-73
2021/01/22 01:00:15;;;;;;;29.77;20.40;;;;;;;5.74;100.00;101554.16;5093850;28;20023;-73
2021/01/22 01:03:01;;;;;;;30.20;20.33;;;;;;;5.58;100.00;101549.56;5093526;28;20048;-74
2021/01/22 01:05:47;;;;;;;33.55;20.25;;;;;;;5.75;100.00;101548.13;5093887;28;20028;-74
2021/01/22 01:08:32;;;;;;;28.35;19.65;;;;;;;5.86;100.00;101535.31;5093696;28;20414;-74
2021/01/22 01:11:18;;;;;;;30.35;21.10;;;;;;;5.47;100.00;101544.19;5093099;28;20024;-74
2021/01/22 01:14:04;;;;;;;33.30;21.45;;;;;;;5.62;100.00;101543.56;5094168;28;20028;-74
2021/01/22 01:16:50;;;;;;;33.78;21.23;;;;;;;5.41;100.00;101540.63;5093633;28;20111;-73
2021/01/22 01:19:35;;;;;;;32.00;21.02;;;;;;;5.41;100.00;101527.63;5093870;28;20114;-74
2021/01/22 01:22:21;;;;;;;33.92;22.05;;;;;;;5.11;100.00;101533.19;5093560;28;20038;-72
2021/01/22 01:25:07;;;;;;;33.53;22.25;;;;;;;5.26;100.00;101536.06;5093381;28;20341;-74
2021/01/22 01:27:53;;;;;;;37.33;23.80;;;;;;;5.01;100.00;101540.78;5094634;28;20358;-73
2021/01/22 01:30:39;;;;;;;50.70;31.50;;;;;;;4.68;100.00;101530.69;5092810;28;20047;-74
2021/01/22 01:33:25;;;;;;;60.00;33.90;;;;;;;4.73;100.00;101529.03;5094109;28;20053;-73
2021/01/22 01:36:10;;;;;;;55.85;32.20;;;;;;;4.83;100.00;101530.94;5093246;28;20100;-74
2021/01/22 01:38:56;;;;;;;55.95;32.35;;;;;;;4.85;100.00;101523.19;5093978;28;20035;-73
2021/01/22 01:41:42;;;;;;;70.47;36.60;;;;;;;5.08;100.00;101519.28;5094301;28;20099;-74
2021/01/22 01:44:28;;;;;;;68.90;38.50;;;;;;;4.80;100.00;101514.44;5097453;28;20036;-74
2021/01/22 01:47:14;;;;;;;74.22;40.08;;;;;;;5.11;100.00;101515.00;5098291;28;20039;-74
2021/01/22 01:49:59;;;;;;;72.25;40.28;;;;;;;4.77;100.00;101514.38;5097746;28;20051;-73
2021/01/22 01:52:45;;;;;;;72.78;39.75;;;;;;;4.71;100.00;101509.94;5083612;28;20039;-73
2021/01/22 01:55:32;;;;;;;76.38;41.85;;;;;;;4.54;100.00;101515.66;5084213;28;20529;-73
2021/01/22 01:58:18;;;;;;;74.18;40.30;;;;;;;5.05;100.00;101507.13;5097504;28;20118;-73
2021/01/22 02:01:06;;;;;;;73.68;41.25;;;;;;;4.79;100.00;101503.19;5098657;28;20395;-73
2021/01/22 02:03:52;;;;;;;81.85;44.65;;;;;;;4.77;100.00;101504.00;5097548;28;20138;-74
2021/01/22 02:06:38;;;;;;;96.70;50.58;;;;;;;4.95;100.00;101504.34;5097399;28;20035;-74
2021/01/22 02:09:24;;;;;;;86.97;47.97;;;;;;;4.67;100.00;101500.34;5097826;28;20089;-73
2021/01/22 02:12:11;;;;;;;82.60;47.25;;;;;;;4.73;100.00;101502.19;5097354;28;20031;-74
2021/01/22 02:14:59;;;;;;;86.40;47.20;;;;;;;4.89;100.00;101501.63;5084013;28;20119;-74
2021/01/22 02:17:46;;;;;;;80.82;45.00;;;;;;;4.98;100.00;101505.25;5097522;28;20110;-73
2021/01/22 02:20:41;;;;;;;79.32;44.03;;;;;;;5.03;100.00;101510.56;5083784;28;20032;-73
2021/01/22 02:23:28;;;;;;;79.65;45.28;;;;;;;4.45;100.00;101508.59;5082543;28;20088;-73
2021/01/22 02:26:17;;;;;;;89.22;48.10;;;;;;;4.53;100.00;101506.13;5098492;28;20020;-73
2021/01/22 02:29:06;;;;;;;82.07;46.40;;;;;;;4.35;100.00;101505.78;5082317;28;20372;-73
2021/01/22 02:31:54;;;;;;;80.32;43.55;;;;;;;4.71;100.00;101506.50;5097104;28;20032;-73
2021/01/22 02:34:42;;;;;;;78.18;44.67;;;;;;;5.14;100.00;101511.59;5096490;28;20024;-73
2021/01/22 02:37:29;;;;;;;78.03;44.45;;;;;;;5.16;100.00;101508.16;5097212;28;20057;-73
2021/01/22 02:40:17;;;;;;;82.07;47.20;;;;;;;4.96;100.00;101499.19;5097136;28;20402;-73
2021/01/22 02:43:05;;;;;;;90.43;48.47;;;;;;;4.85;100.00;101495.53;5096576;28;20016;-73
2021/01/22 02:45:51;;;;;;;84.10;46.72;;;;;;;4.91;100.00;101494.75;5096765;28;20375;-73
2021/01/22 02:48:38;;;;;;;84.25;46.22;;;;;;;4.53;100.00;101499.25;5096625;28;20030;-73
2021/01/22 02:51:24;;;;;;;80.90;46.83;;;;;;;4.85;100.00;101497.22;5096802;28;20425;-73
2021/01/22 02:54:10;;;;;;;88.53;46.97;;;;;;;4.63;100.00;101489.91;5097173;28;20028;-72
2021/01/22 02:57:01;;;;;;;84.53;48.67;;;;;;;4.72;100.00;101485.78;5099179;28;20081;-73
2021/01/22 03:00:20;;;;;;;96.43;53.33;;;;;;;4.89;100.00;101491.25;5082496;28;20037;-73
2021/01/22 03:03:20;;;;;;;89.35;50.25;;;;;;;4.49;100.00;101481.88;5096235;28;20044;-74
2021/01/22 03:06:12;;;;;;;87.38;49.58;;;;;;;4.31;100.00;101489.28;5095730;28;20020;-73
2021/01/22 03:09:00;;;;;;;80.55;45.65;;;;;;;4.55;100.00;101489.75;5082088;28;20032;-72
2021/01/22 03:11:54;;;;;;;89.25;51.83;;;;;;;4.81;100.00;101483.34;5081417;28;20016;-73
2021/01/22 03:14:41;;;;;;;91.63;51.95;;;;;;;4.52;100.00;101474.16;5082661;28;20326;-73
2021/01/22 03:17:26;;;;;;;85.20;48.03;;;;;;;4.77;100.00;101484.13;5095470;28;20024;-73
2021/01/22 03:20:14;;;;;;;78.25;45.08;;;;;;;4.57;100.00;101479.41;5096028;28;20428;-73
2021/01/22 03:23:00;;;;;;;72.05;43.85;;;;;;;4.65;100.00;101478.72;5081437;28;20028;-74
2021/01/22 03:25:46;;;;;;;73.18;42.55;;;;;;;4.67;100.00;101473.56;5095878;28;20471;-73
2021/01/22 03:28:32;;;;;;;75.07;42.35;;;;;;;4.46;100.00;101465.38;5095547;28;20039;-73
2021/01/22 03:31:18;;;;;;;71.72;43.03;;;;;;;4.65;100.00;101463.13;5095852;28;20454;-73
2021/01/22 03:34:03;;;;;;;73.30;44.28;;;;;;;4.64;100.00;101478.69;5082255;28;20039;-73
2021/01/22 03:36:49;;;;;;;92.00;52.00;;;;;;;4.55;100.00;101474.19;5081082;28;20028;-76
2021/01/22 03:39:35;;;;;;;87.45;50.85;;;;;;;4.85;100.00;101473.88;5095335;28;20038;-73
2021/01/22 03:42:21;;;;;;;86.55;50.00;;;;;;;4.90;100.00;101477.41;5094737;28;20466;-73
2021/01/22 03:45:08;;;;;;;84.88;47.22;;;;;;;4.79;100.00;101474.63;5080929;28;20027;-73
2021/01/22 03:47:53;;;;;;;88.25;50.17;;;;;;;4.63;100.00;101470.00;5095380;28;20020;-72
2021/01/22 03:50:39;;;;;;;95.15;53.83;;;;;;;4.77;100.00;101478.94;5095354;28;20034;-73
2021/01/22 03:53:25;;;;;;;96.07;54.13;;;;;;;4.46;100.00;101468.81;5094645;28;20023;-72
2021/01/22 03:56:11;;;;;;;101.20;56.88;;;;;;;4.62;100.00;101472.56;5081746;28;20043;-72
2021/01/22 03:58:57;;;;;;;101.28;58.47;;;;;;;4.11;100.00;101474.16;5094451;28;20024;-72
2021/01/22 04:01:42;;;;;;;107.28;61.30;;;;;;;4.48;100.00;101468.84;5095640;28;20460;-72
2021/01/22 04:04:28;;;;;;;114.47;60.83;;;;;;;4.55;100.00;101481.09;5093856;28;20384;-73
2021/01/22 04:07:14;;;;;;;95.30;55.05;;;;;;;4.57;100.00;101477.69;5094398;28;20032;-73
2021/01/22 04:09:59;;;;;;;91.00;49.25;;;;;;;4.80;100.00;101480.69;5094650;28;20055;-72
2021/01/22 04:12:45;;;;;;;73.63;44.35;;;;;;;5.11;100.00;101481.25;5094312;28;20030;-73
2021/01/22 04:15:31;;;;;;;65.97;37.25;;;;;;;5.28;100.00;101484.13;5095026;28;20101;-74
2021/01/22 04:18:17;;;;;;;64.45;37.83;;;;;;;5.38;100.00;101484.28;5093897;28;20108;-74
2021/01/22 04:21:03;;;;;;;70.85;40.90;;;;;;;5.20;100.00;101491.78;5094824;28;20080;-73
2021/01/22 04:23:49;;;;;;;75.28;42.63;;;;;;;5.24;100.00;101487.53;5080871;28;20027;-74
2021/01/22 04:26:34;;;;;;;86.50;46.97;;;;;;;5.26;100.00;101484.09;5094472;28;20059;-72
2021/01/22 04:29:20;;;;;;;83.82;47.55;;;;;;;5.49;100.00;101484.44;5095648;28;20028;-74
2021/01/22 04:32:08;;;;;;;77.15;44.47;;;;;;;5.21;100.00;101474.47;5079976;28;20023;-74
2021/01/22 04:34:54;;;;;;;97.13;56.10;;;;;;;4.89;100.00;101475.66;5080325;28;20056;-73
2021/01/22 04:37:41;;;;;;;92.72;52.38;;;;;;;5.09;100.00;101467.38;5094753;28;20027;-73
2021/01/22 04:40:27;;;;;;;120.35;65.72;;;;;;;4.85;100.00;101468.66;5094020;28;20024;-73
2021/01/22 04:43:15;;;;;;;121.85;68.25;;;;;;;4.69;100.00;101459.75;5093631;28;20027;-72
2021/01/22 04:46:01;;;;;;;136.23;76.28;;;;;;;4.82;100.00;101459.13;5095602;28;20368;-74
2021/01/22 04:48:49;;;;;;;136.30;74.55;;;;;;;4.86;100.00;101463.50;5094732;28;20039;-74
2021/01/22 04:51:36;;;;;;;131.50;71.25;;;;;;;4.82;100.00;101453.03;5095712;28;20070;-74
2021/01/22 04:54:43;;;;;;;130.50;70.95;;;;;;;4.91;100.00;101453.22;5094880;28;20028;-74
2021/01/22 04:57:31;;;;;;;115.13;63.65;;;;;;;4.80;100.00;101446.97;5094586;28;20052;-73
2021/01/22 05:00:18;;;;;;;110.70;60.40;;;;;;;4.68;100.00;101437.25;5079549;28;20016;-73
2021/01/22 05:03:04;;;;;;;110.55;63.78;;;;;;;4.61;100.00;101455.25;5079684;28;20051;-73
2021/01/22 05:05:50;;;;;;;100.05;57.13;;;;;;;4.86;100.00;101453.13;5079540;28;20490;-74
2021/01/22 05:08:35;;;;;;;105.25;56.78;;;;;;;4.81;100.00;101459.97;5079959;28;20106;-74
2021/01/22 05:11:21;;;;;;;96.25;56.22;;;;;;;5.08;100.00;101463.03;5093141;28;20028;-73
2021/01/22 05:14:07;;;;;;;102.20;56.97;;;;;;;5.09;100.00;101466.50;5094030;28;20460;-73
2021/01/22 05:17:05;;;;;;;91.25;52.65;;;;;;;5.18;100.00;101461.44;5093148;28;20119;-73
2021/01/22 05:20:04;;;;;;;88.78;49.22;;;;;;;5.14;100.00;101470.91;5095522;28;20322;-74
2021/01/22 05:22:50;;;;;;;81.25;47.58;;;;;;;5.18;100.00;101472.72;5092996;28;20188;-73
2021/01/22 05:26:02;;;;;;;82.82;48.35;;;;;;;5.13;100.00;101471.78;5093264;28;20089;-73
2021/01/22 05:28:48;;;;;;;86.75;49.50;;;;;;;5.23;100.00;101471.06;5094376;28;20031;-73
2021/01/22 05:31:34;;;;;;;78.65;45.83;;;;;;;5.43;100.00;101465.31;5079420;28;20031;-73
2021/01/22 05:34:20;;;;;;;79.30;47.50;;;;;;;5.31;100.00;101458.22;5092742;28;20111;-73
2021/01/22 05:37:06;;;;;;;87.07;49.65;;;;;;;5.28;100.00;101463.34;5093048;28;20099;-74
2021/01/22 05:40:12;;;;;;;86.93;51.38;;;;;;;5.33;100.00;101457.38;5093653;28;20350;-74
2021/01/22 05:42:59;;;;;;;88.15;52.75;;;;;;;5.12;100.00;101453.56;5094449;28;20045;-74
2021/01/22 05:45:46;;;;;;;104.32;62.53;;;;;;;5.25;100.00;101446.00;5095300;28;20024;-73
2021/01/22 05:48:32;;;;;;;121.40;69.85;;;;;;;5.27;100.00;101446.88;5093328;28;20035;-74
2021/01/22 05:51:31;;;;;;;121.65;70.47;;;;;;;4.88;100.00;101442.78;5093329;28;20035;-73
2021/01/22 05:54:33;;;;;;;115.47;70.13;;;;;;;4.84;100.00;101443.56;5065671;28;20421;-74
2021/01/22 05:57:19;;;;;;;112.50;67.47;;;;;;;4.89;100.00;101439.31;5079687;28;20031;-74
2021/01/22 06:00:13;;;;;;;107.47;63.45;;;;;;;5.10;100.00;101432.75;5078948;28;20436;-73
2021/01/22 06:02:59;;;;;;;114.68;66.65;;;;;;;4.96;100.00;101429.09;5094383;28;20044;-73
2021/01/22 06:05:52;;;;;;;111.55;65.65;;;;;;;5.14;100.00;101428.47;5093043;28;20048;-73
2021/01/22 06:08:55;;;;;;;126.45;73.75;;;;;;;4.83;100.00;101432.28;5079947;28;20032;-74
2021/01/22 06:11:41;;;;;;;132.25;75.88;;;;;;;4.93;100.00;101442.00;5078591;28;20032;-74
2021/01/22 06:14:33;;;;;;;131.88;78.45;;;;;;;5.16;100.00;101440.63;5094391;28;20455;-73
2021/01/22 06:17:19;;;;;;;147.02;83.47;;;;;;;5.33;100.00;101439.19;5094128;28;20178;-73
2021/01/22 06:20:07;;;;;;;120.40;69.85;;;;;;;5.67;100.00;101437.06;5094651;28;20368;-74
2021/01/22 06:23:09;;;;;;;122.05;69.68;;;;;;;5.63;100.00;101435.28;5093386;28;20062;-74
2021/01/22 06:25:56;;;;;;;100.38;61.78;;;;;;;5.51;100.00;101436.00;5079362;28;20052;-74
2021/01/22 06:28:43;;;;;;;89.35;52.08;;;;;;;5.22;100.00;101432.94;5082819;28;20028;-73
2021/01/22 06:31:29;;;;;;;90.53;50.60;;;;;;;4.95;100.00;101434.25;5082637;28;20036;-73
2021/01/22 06:34:16;;;;;;;85.18;48.55;;;;;;;5.45;100.00;101443.69;5097258;28;20069;-73
2021/01/22 06:37:03;;;;;;;91.43;51.90;;;;;;;5.76;100.00;101437.19;5096636;28;20145;-73
2021/01/22 06:39:50;;;;;;;87.07;49.38;;;;;;;5.70;100.00;101437.97;5098788;28;20379;-74
2021/01/22 06:42:39;;;;;;;84.93;48.67;;;;;;;5.80;100.00;101437.25;5096178;28;20031;-74
2021/01/22 06:45:25;;;;;;;85.10;47.35;;;;;;;6.06;100.00;101437.63;5096658;28;20063;-74
2021/01/22 06:48:11;;;;;;;90.97;54.85;;;;;;;5.94;100.00;101432.28;5082131;28;20024;-73
2021/01/22 06:51:14;;;;;;;155.52;87.75;;;;;;;5.60;100.00;101435.22;5082621;28;20441;-73
2021/01/22 06:54:20;;;;;;;134.38;76.72;;;;;;;6.02;100.00;101436.69;5096769;28;20132;-74
2021/01/22 06:57:05;;;;;;;103.40;57.35;;;;;;;6.09;100.00;101440.25;5096136;28;20028;-74
2021/01/22 06:59:51;;;;;;;90.82;52.20;;;;;;;5.94;100.00;101445.28;5096307;28;20111;-74
2021/01/22 07:02:38;;;;;;;73.22;44.30;;;;;;;5.94;100.00;101440.06;5096300;28;20044;-73
2021/01/22 07:05:35;;;;;;;76.07;41.78;;;;;;;6.12;100.00;101432.47;5096750;28;20028;-75
2021/01/22 07:08:54;;;;;;;64.32;39.40;;;;;;;6.46;100.00;101424.16;5097901;28;20115;-75
2021/01/22 07:11:50;;;;;;;55.80;35.03;;;;;;;5.94;100.00;101422.72;5096574;28;20040;-73
2021/01/22 07:15:24;;;;;;;59.70;36.67;;;;;;;6.14;100.00;101410.81;5082048;28;20038;-73
2021/01/22 07:18:17;;;;;;;67.22;39.03;;;;;;;6.62;100.00;101405.25;5096614;28;20039;-73
2021/01/22 07:21:36;;;;;;;;;;;;;;;;;;;;;
2021/01/22 07:24:25;;;;;;;79.43;44.17;;;;;;;7.14;100.00;101405.72;5095811;28;20028;-72
2021/01/22 07:27:13;;;;;;;71.65;40.13;;;;;;;7.07;100.00;101396.09;5095950;28;20371;-74
2021/01/22 07:30:09;;;;;;;74.80;41.75;;;;;;;7.60;100.00;101399.06;5096170;28;20035;-73
2021/01/22 07:32:55;;;;;;;91.15;48.20;;;;;;;7.79;100.00;101380.00;5082374;28;20451;-73
2021/01/22 07:35:41;;;;;;;103.38;56.05;;;;;;;7.39;100.00;101389.34;5094861;28;20048;-74
2021/01/22 07:38:28;;;;;;;110.30;56.92;;;;;;;7.21;100.00;101391.88;5094611;28;20024;-73
2021/01/22 07:41:20;;;;;;;112.50;55.85;;;;;;;7.98;100.00;101389.66;5080780;28;20027;-73
2021/01/22 07:44:06;;;;;;;100.93;51.95;;;;;;;8.21;100.00;101383.69;5095000;28;20092;-74
2021/01/22 07:46:52;;;;;;;103.45;54.22;;;;;;;7.68;100.00;101389.53;5095565;28;20032;-74
2021/01/22 07:49:55;;;;;;;109.75;62.08;;;;;;;7.55;100.00;101391.19;5095052;28;20111;-74
2021/01/22 07:52:43;;;;;;;94.93;55.20;;;;;;;7.79;100.00;101387.81;5067041;28;20032;-73
2021/01/22 07:55:29;;;;;;;76.75;47.63;;;;;;;7.87;100.00;101384.41;5097563;28;20020;-73
2021/01/22 07:58:16;;;;;;;67.63;42.63;;;;;;;8.32;100.00;101386.31;5096628;28;20032;-74
2021/01/22 08:01:02;;;;;;;64.03;40.78;;;;;;;7.57;100.00;101389.47;5095633;28;20097;-73
2021/01/22 08:03:47;;;;;;;59.75;39.05;;;;;;;8.20;100.00;101388.88;5094450;28;20121;-74
2021/01/22 08:06:47;;;;;;;54.17;35.08;;;;;;;8.07;100.00;101387.94;5094123;28;20078;-74
2021/01/22 08:09:32;;;;;;;53.67;34.17;;;;;;;8.00;100.00;101387.94;5095546;28;20107;-74
2021/01/22 08:12:18;;;;;;;53.63;34.28;;;;;;;8.58;100.00;101397.66;5093876;28;20106;-74
2021/01/22 08:15:18;;;;;;;52.60;35.47;;;;;;;8.24;100.00;101399.34;5094302;28;20024;-73
2021/01/22 08:18:05;;;;;;;54.30;36.10;;;;;;;8.62;100.00;101389.84;5095807;28;20460;-75
2021/01/22 08:20:51;;;;;;;52.08;35.10;;;;;;;8.92;100.00;101397.69;5096471;28;20140;-74
2021/01/22 08:23:42;;;;;;;53.38;33.58;;;;;;;8.95;100.00;101394.22;5093949;28;20032;-73
2021/01/22 08:26:28;;;;;;;56.17;37.20;;;;;;;8.96;100.00;101395.97;5094627;28;20024;-75
2021/01/22 08:29:14;;;;;;;60.05;38.75;;;;;;;9.39;100.00;101387.19;5095427;28;20055;-73
2021/01/22 08:32:02;;;;;;;54.97;35.38;;;;;;;9.42;100.00;101398.53;5094573;28;20050;-73
2021/01/22 08:34:48;;;;;;;53.90;34.75;;;;;;;8.95;100.00;101397.72;5094711;28;20035;-74
2021/01/22 08:37:34;;;;;;;53.03;35.60;;;;;;;9.45;100.00;101398.50;5093791;28;20024;-73
2021/01/22 08:40:20;;;;;;;60.33;36.13;;;;;;;9.29;100.00;101403.78;5094040;28;20333;-74
2021/01/22 08:43:12;;;;;;;63.45;39.67;;;;;;;9.27;100.00;101395.06;5080063;28;20032;-72
2021/01/22 08:46:06;;;;;;;66.13;41.53;;;;;;;9.66;100.00;101389.75;5095267;28;20039;-73
2021/01/22 08:48:52;;;;;;;60.60;38.30;;;;;;;9.73;100.00;101381.00;5080064;28;20024;-74
2021/01/22 08:51:39;;;;;;;56.78;38.30;;;;;;;10.03;100.00;101383.47;5092978;28;20468;-73
2021/01/22 08:54:37;;;;;;;62.58;40.22;;;;;;;10.25;100.00;101382.53;5094566;28;20036;-74
2021/01/22 08:57:25;;;;;;;63.80;41.20;;;;;;;10.50;100.00;101380.63;5094412;28;20024;-73
2021/01/22 09:00:14;;;;;;;64.78;41.60;;;;;;;10.71;100.00;101386.59;5080238;28;20085;-73
2021/01/22 09:03:00;;;;;;;71.82;44.63;;;;;;;10.65;100.00;101375.28;5080433;28;20086;-75
2021/01/22 09:05:53;;;;;;;68.47;43.22;;;;;;;10.85;100.00;101374.22;5080369;28;20059;-74
2021/01/22 09:08:54;;;;;;;70.05;44.40;;;;;;;10.94;100.00;101374.19;5093492;28;20028;-73
2021/01/22 09:11:40;;;;;;;103.53;62.83;;;;;;;10.92;100.00;101362.81;5079218;28;20024;-74
2021/01/22 09:14:26;;;;;;;95.65;59.95;;;;;;;11.23;100.00;101359.03;5079786;28;20132;-74
2021/01/22 09:17:23;;;;;;;108.55;69.88;;;;;;;11.40;100.00;101351.88;5093491;28;20071;-75
2021/01/22 09:20:23;;;;;;;93.35;57.05;;;;;;;11.24;100.00;101352.91;5080142;28;20016;-74
2021/01/22 09:23:09;;;;;;;79.50;52.15;;;;;;;10.77;100.00;101354.22;5092462;28;20061;-73
2021/01/22 09:25:56;;;;;;;78.93;51.97;;;;;;;10.46;100.00;101343.13;5093983;28;20440;-73
2021/01/22 09:28:42;;;;;;;72.10;48.15;;;;;;;10.24;100.00;101344.13;5093464;28;20046;-73
2021/01/22 09:31:28;;;;;;;64.22;44.47;;;;;;;9.91;100.00;101349.50;5092202;28;20032;-73
2021/01/22 09:34:14;;;;;;;66.72;43.25;;;;;;;9.49;100.00;101339.22;5093079;28;20089;-74
2021/01/22 09:37:00;;;;;;;57.80;39.58;;;;;;;9.83;100.00;101332.97;5093111;28;20055;-74
2021/01/22 09:39:46;;;;;;;54.90;35.92;;;;;;;10.13;100.00;101323.25;5093311;28;20031;-75
2021/01/22 09:42:33;;;;;;;56.78;39.25;;;;;;;10.20;100.00;101329.31;5092434;28;20020;-74
2021/01/22 09:45:19;;;;;;;59.08;37.88;;;;;;;9.89;100.00;101322.50;5079817;28;20036;-74
2021/01/22 09:48:05;;;;;;;56.65;36.05;;;;;;;9.76;100.00;101313.81;5093813;28;20362;-75
2021/01/22 09:50:51;;;;;;;52.85;35.53;;;;;;;9.68;100.00;101314.72;5092943;28;20364;-73
2021/01/22 09:53:37;;;;;;;53.45;35.95;;;;;;;9.66;100.00;101312.09;5092236;28;20028;-74
2021/01/22 09:56:22;;;;;;;58.67;39.17;;;;;;;9.65;100.00;101307.75;5093394;28;20074;-74
2021/01/22 09:59:08;;;;;;;64.43;41.78;;;;;;;9.90;100.00;101314.59;5092282;28;20020;-74
2021/01/22 10:01:54;;;;;;;57.22;39.78;;;;;;;10.15;100.00;101312.75;5092850;28;20052;-74
2021/01/22 10:04:40;;;;;;;60.78;41.85;;;;;;;10.06;100.00;101304.97;5096545;28;20035;-74
2021/01/22 10:07:25;;;;;;;62.55;43.60;;;;;;;10.18;100.00;101299.66;5097495;28;20034;-75
2021/01/22 10:10:11;;;;;;;66.38;46.47;;;;;;;10.24;100.00;101293.50;5083152;28;20032;-73
2021/01/22 10:12:57;;;;;;;74.05;49.80;;;;;;;10.17;100.00;101308.41;5096345;28;20027;-74
2021/01/22 10:15:43;;;;;;;77.03;46.83;;;;;;;10.60;100.00;101309.81;5082578;28;20093;-75
2021/01/22 10:18:28;;;;;;;70.78;46.35;;;;;;;10.90;100.00;101304.31;5096457;28;20024;-74
2021/01/22 10:21:20;;;;;;;83.97;53.67;;;;;;;10.90;100.00;101303.44;5097307;28;20107;-74
2021/01/22 10:24:07;;;;;;;85.32;54.25;;;;;;;11.32;100.00;101295.97;5083311;28;20032;-74
2021/01/22 10:26:52;;;;;;;87.05;55.58;;;;;;;11.52;100.00;101283.50;5097184;28;20391;-74
2021/01/22 10:29:38;;;;;;;74.97;51.08;;;;;;;11.80;100.00;101287.53;5096673;28;20020;-73
2021/01/22 10:32:27;;;;;;;77.10;52.13;;;;;;;11.63;100.00;101276.41;5096747;28;20031;-74
2021/01/22 10:35:13;;;;;;;82.45;51.35;;;;;;;11.58;100.00;101280.78;5097908;28;20452;-74
2021/01/22 10:38:31;;;;;;;83.30;52.20;;;;;;;11.64;100.00;101267.63;5096931;28;20038;-73
2021/01/22 10:41:20;;;;;;;74.88;51.20;;;;;;;11.91;100.00;101262.00;5113997;23;20027;-72
2021/01/22 10:44:05;;;;;;;83.00;52.78;;;;;;;12.09;100.00;101255.63;5036869;28;20362;-74
2021/01/22 10:46:51;;;;;;;80.43;51.28;;;;;;;11.69;100.00;101257.09;5037146;28;20031;-74
2021/01/22 10:49:37;;;;;;;75.40;50.20;;;;;;;12.24;100.00;101251.00;5037474;28;20163;-73
2021/01/22 10:52:23;;;;;;;85.50;53.25;;;;;;;12.36;100.00;101242.91;5036482;28;20032;-73
2021/01/22 10:55:10;;;;;;;89.78;57.20;;;;;;;12.08;100.00;101244.25;5022308;28;20076;-74
2021/01/22 10:57:55;;;;;;;98.68;63.70;;;;;;;12.16;100.00;101244.13;5023514;28;20052;-73
2021/01/22 11:00:41;;;;;;;106.97;68.32;;;;;;;12.01;100.00;101229.47;5036652;28;20087;-73
2021/01/22 11:03:28;;;;;;;96.80;67.15;;;;;;;12.13;100.00;101234.53;5023153;28;20053;-73
2021/01/22 11:06:13;;;;;;;100.88;65.90;;;;;;;12.19;100.00;101218.69;5021769;28;20029;-73
2021/01/22 11:09:01;;;;;;;99.43;64.45;;;;;;;11.82;100.00;101220.13;5036212;28;20107;-73
2021/01/22 11:11:46;;;;;;;98.38;63.80;;;;;;;12.13;100.00;101223.19;5023121;28;20469;-72
2021/01/22 11:14:32;;;;;;;113.88;72.85;;;;;;;11.73;100.00;101222.88;5036248;28;20477;-74
2021/01/22 11:17:18;;;;;;;121.93;74.57;;;;;;;11.38;100.00;101219.84;5035466;28;20472;-73
2021/01/22 11:20:04;;;;;;;104.30;67.55;;;;;;;11.29;100.00;101211.22;5036568;28;20052;-72
2021/01/22 11:22:50;;;;;;;108.70;66.25;;;;;;;11.87;100.00;101210.44;5036117;28;20067;-73
2021/01/22 11:25:36;;;;;;;100.72;66.47;;;;;;;12.06;100.00;101197.91;5036003;28;20045;-73
2021/01/22 11:28:23;;;;;;;100.35;70.00;;;;;;;12.37;100.00;101199.09;5035860;28;20038;-73
2021/01/22 11:31:08;;;;;;;108.13;64.22;;;;;;;12.98;100.00;101199.78;5036213;28;20065;-73
2021/01/22 11:33:55;;;;;;;99.90;61.08;;;;;;;12.60;100.00;101195.19;5036931;28;20071;-74
2021/01/22 11:36:40;;;;;;;104.65;67.00;;;;;;;12.38;100.00;101180.69;5021965;28;20030;-75
2021/01/22 11:39:26;;;;;;;100.97;66.30;;;;;;;12.27;100.00;101187.91;5036542;28;20481;-74
2021/01/22 11:42:12;;;;;;;92.68;62.45;;;;;;;12.59;100.00;101182.97;5021075;28;20057;-73
2021/01/22 11:44:58;;;;;;;105.68;69.03;;;;;;;13.10;100.00;101183.75;5021463;28;20135;-74
2021/01/22 11:47:44;;;;;;;91.03;63.30;;;;;;;13.11;100.00;101167.91;5021294;28;20342;-73
2021/01/22 11:50:29;;;;;;;94.50;62.45;;;;;;;13.38;100.00;101166.47;5036046;28;20030;-74
2021/01/22 11:53:15;;;;;;;97.70;65.45;;;;;;;13.55;100.00;101170.44;5035870;28;20040;-73
2021/01/22 11:56:01;;;;;;;113.40;76.43;;;;;;;13.35;100.00;101164.75;5035863;28;20021;-74
2021/01/22 11:58:47;;;;;;;98.43;65.60;;;;;;;13.44;100.00;101171.59;5035318;28;20108;-74
2021/01/22 12:01:32;;;;;;;95.82;63.85;;;;;;;13.39;100.00;101169.06;5035840;28;20021;-73
2021/01/22 12:04:18;;;;;;;98.78;62.47;;;;;;;13.64;99.50;101164.13;5035424;28;20033;-74
2021/01/22 12:07:04;;;;;;;92.03;60.50;;;;;;;13.45;98.41;101161.03;5034955;28;20036;-73
2021/01/22 12:09:50;;;;;;;90.95;59.15;;;;;;;13.28;99.97;101155.28;5035318;28;20462;-74
2021/01/22 12:12:35;;;;;;;82.35;54.47;;;;;;;14.11;95.78;101148.91;5034830;28;20421;-74
2021/01/22 12:15:21;;;;;;;82.65;54.33;;;;;;;14.25;93.93;101145.97;5034863;28;20057;-74
2021/01/22 12:18:07;;;;;;;90.75;60.60;;;;;;;14.54;91.96;101139.03;5034435;28;20026;-74
2021/01/22 12:20:53;;;;;;;93.93;60.25;;;;;;;15.15;89.38;101142.59;5035752;28;20025;-74
2021/01/22 12:23:42;;;;;;;85.90;57.20;;;;;;;14.76;90.05;101144.59;5020222;28;20029;-73
2021/01/22 12:26:27;;;;;;;89.82;57.40;;;;;;;14.98;89.88;101134.28;5019743;28;20044;-73
2021/01/22 12:29:13;;;;;;;90.50;58.50;;;;;;;14.83;90.02;101133.81;5033967;28;20022;-73
2021/01/22 12:31:59;;;;;;;91.40;59.58;;;;;;;14.23;96.10;101119.63;5034738;28;20030;-74
2021/01/22 12:34:44;;;;;;;87.03;58.90;;;;;;;14.81;94.23;101113.66;5034109;28;20029;-73
2021/01/22 12:37:30;;;;;;;94.93;63.47;;;;;;;14.24;97.20;101109.97;5034623;28;20033;-74
2021/01/22 12:40:16;;;;;;;87.63;59.30;;;;;;;13.95;100.00;101113.31;5020778;28;20450;-74
2021/01/22 12:43:02;;;;;;;94.40;60.55;;;;;;;13.65;100.00;101105.28;5020706;28;20041;-73